Flight Track Log - Related Links

Times and Time Zones

All times are in EDT time to prevent confusion due to time zone crossing. See the LBQ792 flight status page for this flight to view local times or setup timezone preferences in your user account.


Time Position Orientation Groundspeed Altitude Reporting Facility
EDT Latitude Longitude Course Direction KTS MPH feet Rate Location/Type
Tue 02:51:16 AM 39.2167 -76.6167 21° North 136 157 3,100  Level Potomac TRACON
Tue 02:52:16 AM 39.2500 -76.5833 38° Northeast 150 173 4,800 1,650 Climbing Potomac TRACON
Tue 02:53:16 AM 39.3000 -76.5667 14° North 155 178 6,400 1,600 Climbing Potomac TRACON
Tue 02:55:00 AM 39.4238 -76.6226 North  Level FlightAware Approximate
Tue 03:02:00 AM 39.8960 -76.4765 32° Northeast  Level FlightAware Approximate
Tue 03:03:00 AM 39.9430 -76.4390 212° Southwest  Level FlightAware Approximate
Tue 03:04:00 AM 39.8819 -76.4878 212° Southwest  Level FlightAware Approximate
Tue 03:05:00 AM 39.8241 -76.5426 218° Southwest  Level FlightAware Approximate
Tue 03:06:00 AM 39.8681 -76.5045 34° Northeast  Level FlightAware Approximate
Tue 03:07:00 AM 39.9273 -76.4520 34° Northeast  Level FlightAware Approximate
Tue 03:08:00 AM 39.9865 -76.3994 34° Northeast  Level FlightAware Approximate
Tue 03:09:00 AM 40.0456 -76.3467 34° Northeast  Level FlightAware Approximate
Tue 03:10:00 AM 40.1048 -76.2940 34° Northeast  Level FlightAware Approximate
Tue 03:11:00 AM 40.1545 -76.2288 37° Northeast  Level FlightAware Approximate
Tue 03:12:00 AM 40.2013 -76.1654 37° Northeast  Level FlightAware Approximate
Tue 03:13:00 AM 40.2582 -76.1085 37° Northeast  Level FlightAware Approximate
Tue 03:14:00 AM 40.3005 -76.0383 45° Northeast  Level FlightAware Approximate
Tue 03:15:00 AM 40.3507 -75.9713 45° Northeast  Level FlightAware Approximate
Tue 03:16:00 AM 40.3667 -75.9500 45° Northeast  Level FlightAware Approximate
Tue 03:17:00 AM 40.3785 -75.9652 45° Northeast  Level Estimated
Tue 03:18:00 AM 40.3785 -75.9652 45° Northeast  Level Estimated
Tue 03:19:00 AM 40.3785 -75.9652 45° Northeast  Level Estimated
Tue 03:20:00 AM 40.3785 -75.9652 45° Northeast  Level Estimated
Tue 03:21:00 AM 40.3785 -75.9652 45° Northeast  Level Estimated
Tue 03:22:00 AM 40.3785 -75.9652 45° Northeast  Level Estimated

Login

Don't have an account? Register now (free) for customized features, flight alerts, and more!